sensor_id;sensor_type;location;lat;lon;timestamp;P1;durP1;ratioP1;P2;durP2;ratioP2
934;SDS011;454;53.254;10.400;2022-12-20T05:02:16;5.75;;;5.25;;
934;SDS011;454;53.254;10.400;2022-12-20T05:04:43;4.45;;;4.05;;
934;SDS011;454;53.254;10.400;2022-12-20T05:07:10;4.40;;;4.15;;
934;SDS011;454;53.254;10.400;2022-12-20T05:09:36;5.47;;;4.80;;
934;SDS011;454;53.254;10.400;2022-12-20T05:12:03;5.53;;;5.10;;
934;SDS011;454;53.254;10.400;2022-12-20T05:14:30;2.95;;;2.83;;
934;SDS011;454;53.254;10.400;2022-12-20T05:16:57;7.65;;;5.70;;
934;SDS011;454;53.254;10.400;2022-12-20T05:19:25;4.10;;;3.85;;
934;SDS011;454;53.254;10.400;2022-12-20T05:21:51;6.63;;;6.13;;
934;SDS011;454;53.254;10.400;2022-12-20T05:24:35;6.93;;;3.88;;
934;SDS011;454;53.254;10.400;2022-12-20T05:27:20;5.45;;;3.13;;
934;SDS011;454;53.254;10.400;2022-12-20T05:29:46;4.72;;;4.40;;
934;SDS011;454;53.254;10.400;2022-12-20T05:32:13;3.70;;;3.50;;
934;SDS011;454;53.254;10.400;2022-12-20T05:34:41;4.60;;;4.25;;
934;SDS011;454;53.254;10.400;2022-12-20T05:37:08;6.70;;;4.60;;
934;SDS011;454;53.254;10.400;2022-12-20T05:39:34;6.57;;;4.25;;
934;SDS011;454;53.254;10.400;2022-12-20T05:42:01;4.47;;;4.07;;
934;SDS011;454;53.254;10.400;2022-12-20T05:44:28;5.40;;;4.90;;
934;SDS011;454;53.254;10.400;2022-12-20T05:46:55;8.13;;;4.07;;
934;SDS011;454;53.254;10.400;2022-12-20T05:49:21;9.20;;;4.30;;
934;SDS011;454;53.254;10.400;2022-12-20T05:51:50;4.72;;;2.95;;
934;SDS011;454;53.254;10.400;2022-12-20T05:54:16;3.97;;;3.55;;
934;SDS011;454;53.254;10.400;2022-12-20T05:56:43;6.75;;;5.32;;
934;SDS011;454;53.254;10.400;2022-12-20T05:59:10;5.70;;;4.57;;
934;SDS011;454;53.254;10.400;2022-12-20T06:01:36;4.43;;;3.83;;
934;SDS011;454;53.254;10.400;2022-12-20T06:04:03;4.38;;;3.97;;
934;SDS011;454;53.254;10.400;2022-12-20T06:06:30;6.70;;;4.43;;
934;SDS011;454;53.254;10.400;2022-12-20T06:08:58;3.55;;;3.38;;
934;SDS011;454;53.254;10.400;2022-12-20T06:11:25;4.60;;;3.65;;
934;SDS011;454;53.254;10.400;2022-12-20T06:13:51;5.55;;;4.40;;
934;SDS011;454;53.254;10.400;2022-12-20T06:16:18;4.60;;;4.20;;
934;SDS011;454;53.254;10.400;2022-12-20T06:18:47;5.57;;;3.88;;
934;SDS011;454;53.254;10.400;2022-12-20T06:21:14;6.63;;;4.65;;
934;SDS011;454;53.254;10.400;2022-12-20T06:23:42;6.95;;;6.22;;
934;SDS011;454;53.254;10.400;2022-12-20T06:26:10;3.30;;;3.20;;
934;SDS011;454;53.254;10.400;2022-12-20T06:28:37;4.60;;;3.40;;
934;SDS011;454;53.254;10.400;2022-12-20T06:31:07;3.95;;;3.75;;
934;SDS011;454;53.254;10.400;2022-12-20T06:33:34;3.90;;;3.70;;
934;SDS011;454;53.254;10.400;2022-12-20T06:36:01;5.53;;;4.97;;
934;SDS011;454;53.254;10.400;2022-12-20T06:38:29;8.68;;;4.10;;
934;SDS011;454;53.254;10.400;2022-12-20T06:40:56;9.32;;;5.18;;
934;SDS011;454;53.254;10.400;2022-12-20T06:43:24;7.13;;;6.43;;
934;SDS011;454;53.254;10.400;2022-12-20T06:45:50;6.32;;;4.20;;
934;SDS011;454;53.254;10.400;2022-12-20T06:48:17;26.80;;;5.82;;
934;SDS011;454;53.254;10.400;2022-12-20T06:50:45;8.77;;;5.25;;
934;SDS011;454;53.254;10.400;2022-12-20T06:53:13;5.00;;;3.90;;
934;SDS011;454;53.254;10.400;2022-12-20T06:55:40;14.70;;;9.35;;
934;SDS011;454;53.254;10.400;2022-12-20T06:58:06;28.02;;;15.98;;
934;SDS011;454;53.254;10.400;2022-12-20T07:00:34;26.63;;;16.75;;
934;SDS011;454;53.254;10.400;2022-12-20T07:03:01;6.65;;;6.00;;
934;SDS011;454;53.254;10.400;2022-12-20T07:05:28;5.95;;;5.43;;
934;SDS011;454;53.254;10.400;2022-12-20T07:07:55;10.30;;;8.07;;
934;SDS011;454;53.254;10.400;2022-12-20T07:10:22;8.20;;;7.47;;
934;SDS011;454;53.254;10.400;2022-12-20T07:12:48;9.38;;;5.30;;
934;SDS011;454;53.254;10.400;2022-12-20T07:15:17;12.95;;;10.00;;
934;SDS011;454;53.254;10.400;2022-12-20T07:17:45;7.82;;;5.65;;
934;SDS011;454;53.254;10.400;2022-12-20T07:20:11;11.52;;;7.95;;
934;SDS011;454;53.254;10.400;2022-12-20T07:22:38;17.13;;;10.25;;
934;SDS011;454;53.254;10.400;2022-12-20T07:25:05;24.48;;;16.42;;
934;SDS011;454;53.254;10.400;2022-12-20T07:27:32;18.77;;;11.20;;
934;SDS011;454;53.254;10.400;2022-12-20T07:29:59;18.67;;;9.55;;
934;SDS011;454;53.254;10.400;2022-12-20T07:32:25;14.18;;;12.07;;
934;SDS011;454;53.254;10.400;2022-12-20T07:34:53;9.25;;;7.15;;
934;SDS011;454;53.254;10.400;2022-12-20T07:37:20;5.68;;;5.38;;
934;SDS011;454;53.254;10.400;2022-12-20T07:39:47;7.57;;;6.82;;
934;SDS011;454;53.254;10.400;2022-12-20T07:42:14;6.13;;;4.47;;
934;SDS011;454;53.254;10.400;2022-12-20T07:44:40;9.57;;;4.63;;
934;SDS011;454;53.254;10.400;2022-12-20T07:47:07;5.00;;;4.45;;
934;SDS011;454;53.254;10.400;2022-12-20T07:49:34;8.35;;;5.95;;
934;SDS011;454;53.254;10.400;2022-12-20T07:52:02;5.82;;;5.38;;
934;SDS011;454;53.254;10.400;2022-12-20T07:54:32;8.90;;;5.30;;
934;SDS011;454;53.254;10.400;2022-12-20T07:57:02;12.98;;;7.53;;
934;SDS011;454;53.254;10.400;2022-12-20T07:59:33;6.55;;;5.57;;
934;SDS011;454;53.254;10.400;2022-12-20T08:02:03;5.68;;;4.70;;
934;SDS011;454;53.254;10.400;2022-12-20T08:04:30;7.35;;;6.70;;
934;SDS011;454;53.254;10.400;2022-12-20T08:06:58;14.13;;;7.50;;
934;SDS011;454;53.254;10.400;2022-12-20T08:09:28;7.38;;;5.78;;
934;SDS011;454;53.254;10.400;2022-12-20T08:12:00;5.32;;;4.80;;
934;SDS011;454;53.254;10.400;2022-12-20T08:14:27;14.93;;;6.28;;
934;SDS011;454;53.254;10.400;2022-12-20T08:16:53;5.90;;;5.30;;
934;SDS011;454;53.254;10.400;2022-12-20T08:19:20;8.38;;;7.68;;
934;SDS011;454;53.254;10.400;2022-12-20T08:21:47;7.18;;;5.45;;
934;SDS011;454;53.254;10.400;2022-12-20T08:24:15;8.82;;;5.70;;
934;SDS011;454;53.254;10.400;2022-12-20T08:26:42;7.13;;;6.60;;
934;SDS011;454;53.254;10.400;2022-12-20T08:29:08;10.23;;;6.65;;
934;SDS011;454;53.254;10.400;2022-12-20T08:31:36;14.38;;;5.07;;
934;SDS011;454;53.254;10.400;2022-12-20T08:34:03;7.30;;;4.55;;
934;SDS011;454;53.254;10.400;2022-12-20T08:36:30;17.17;;;8.20;;
934;SDS011;454;53.254;10.400;2022-12-20T08:38:56;3.30;;;3.00;;
934;SDS011;454;53.254;10.400;2022-12-20T08:41:24;6.28;;;5.65;;
934;SDS011;454;53.254;10.400;2022-12-20T08:43:51;6.70;;;5.15;;
934;SDS011;454;53.254;10.400;2022-12-20T08:46:18;6.68;;;5.70;;
934;SDS011;454;53.254;10.400;2022-12-20T08:48:44;5.05;;;4.35;;
934;SDS011;454;53.254;10.400;2022-12-20T08:51:11;14.15;;;6.80;;
934;SDS011;454;53.254;10.400;2022-12-20T08:53:38;3.33;;;3.22;;
934;SDS011;454;53.254;10.400;2022-12-20T08:56:05;6.60;;;4.85;;
934;SDS011;454;53.254;10.400;2022-12-20T08:58:35;6.22;;;4.60;;
934;SDS011;454;53.254;10.400;2022-12-20T09:01:03;10.70;;;6.53;;
934;SDS011;454;53.254;10.400;2022-12-20T09:03:31;5.05;;;4.65;;
934;SDS011;454;53.254;10.400;2022-12-20T09:05:59;12.15;;;6.10;;
934;SDS011;454;53.254;10.400;2022-12-20T09:08:26;7.30;;;6.53;;
934;SDS011;454;53.254;10.400;2022-12-20T09:10:52;8.48;;;4.50;;
934;SDS011;454;53.254;10.400;2022-12-20T09:13:19;5.70;;;5.30;;
934;SDS011;454;53.254;10.400;2022-12-20T09:15:47;13.68;;;6.07;;
934;SDS011;454;53.254;10.400;2022-12-20T09:18:14;5.97;;;4.80;;
934;SDS011;454;53.254;10.400;2022-12-20T09:20:41;3.72;;;3.58;;
934;SDS011;454;53.254;10.400;2022-12-20T09:23:09;9.32;;;7.03;;
934;SDS011;454;53.254;10.400;2022-12-20T09:25:36;8.50;;;4.28;;
934;SDS011;454;53.254;10.400;2022-12-20T09:28:03;7.78;;;6.25;;
934;SDS011;454;53.254;10.400;2022-12-20T09:30:30;10.93;;;6.72;;
934;SDS011;454;53.254;10.400;2022-12-20T09:32:58;9.35;;;8.50;;
934;SDS011;454;53.254;10.400;2022-12-20T09:35:25;6.57;;;5.15;;
934;SDS011;454;53.254;10.400;2022-12-20T09:37:52;6.97;;;3.20;;
934;SDS011;454;53.254;10.400;2022-12-20T09:40:19;11.23;;;8.25;;
934;SDS011;454;53.254;10.400;2022-12-20T09:42:49;4.65;;;4.10;;
934;SDS011;454;53.254;10.400;2022-12-20T09:45:18;11.57;;;6.60;;
934;SDS011;454;53.254;10.400;2022-12-20T09:47:51;7.57;;;4.53;;
934;SDS011;454;53.254;10.400;2022-12-20T09:50:20;15.93;;;3.92;;
934;SDS011;454;53.254;10.400;2022-12-20T09:52:57;5.63;;;5.30;;
934;SDS011;454;53.254;10.400;2022-12-20T09:55:36;3.95;;;3.65;;
934;SDS011;454;53.254;10.400;2022-12-20T09:58:15;4.88;;;4.45;;
934;SDS011;454;53.254;10.400;2022-12-20T10:00:52;4.55;;;4.25;;
934;SDS011;454;53.254;10.400;2022-12-20T10:03:20;7.00;;;6.40;;
934;SDS011;454;53.254;10.400;2022-12-20T10:05:52;4.22;;;3.90;;
934;SDS011;454;53.254;10.400;2022-12-20T10:08:23;3.20;;;3.00;;
934;SDS011;454;53.254;10.400;2022-12-20T10:11:03;3.85;;;3.17;;
934;SDS011;454;53.254;10.400;2022-12-20T10:13:37;4.90;;;4.45;;
934;SDS011;454;53.254;10.400;2022-12-20T10:16:20;11.50;;;4.70;;
934;SDS011;454;53.254;10.400;2022-12-20T10:18:59;3.95;;;3.70;;
934;SDS011;454;53.254;10.400;2022-12-20T10:21:37;3.53;;;3.40;;
934;SDS011;454;53.254;10.400;2022-12-20T10:24:13;2.85;;;2.65;;
934;SDS011;454;53.254;10.400;2022-12-20T10:26:43;4.63;;;4.30;;
934;SDS011;454;53.254;10.400;2022-12-20T10:29:11;5.85;;;4.43;;
934;SDS011;454;53.254;10.400;2022-12-20T10:31:37;5.78;;;5.40;;
934;SDS011;454;53.254;10.400;2022-12-20T10:34:04;4.82;;;4.32;;
934;SDS011;454;53.254;10.400;2022-12-20T10:36:32;14.25;;;8.77;;
934;SDS011;454;53.254;10.400;2022-12-20T10:39:03;11.15;;;8.27;;
934;SDS011;454;53.254;10.400;2022-12-20T10:41:31;19.00;;;10.02;;
934;SDS011;454;53.254;10.400;2022-12-20T10:44:15;9.60;;;7.47;;
934;SDS011;454;53.254;10.400;2022-12-20T10:46:49;15.23;;;10.65;;
934;SDS011;454;53.254;10.400;2022-12-20T10:49:25;24.48;;;11.70;;
934;SDS011;454;53.254;10.400;2022-12-20T10:51:55;15.40;;;11.65;;
934;SDS011;454;53.254;10.400;2022-12-20T10:54:27;12.05;;;8.60;;
934;SDS011;454;53.254;10.400;2022-12-20T10:56:56;6.93;;;4.40;;
934;SDS011;454;53.254;10.400;2022-12-20T10:59:27;7.72;;;5.13;;
934;SDS011;454;53.254;10.400;2022-12-20T11:01:59;6.35;;;4.88;;
934;SDS011;454;53.254;10.400;2022-12-20T11:04:26;5.85;;;4.95;;
934;SDS011;454;53.254;10.400;2022-12-20T11:06:55;4.65;;;4.28;;
934;SDS011;454;53.254;10.400;2022-12-20T11:09:25;6.25;;;4.22;;
934;SDS011;454;53.254;10.400;2022-12-20T11:11:56;5.10;;;4.70;;
934;SDS011;454;53.254;10.400;2022-12-20T11:14:28;4.40;;;4.07;;
934;SDS011;454;53.254;10.400;2022-12-20T11:16:57;4.85;;;4.45;;
934;SDS011;454;53.254;10.400;2022-12-20T11:19:29;6.72;;;5.47;;
934;SDS011;454;53.254;10.400;2022-12-20T11:22:07;5.10;;;4.00;;
934;SDS011;454;53.254;10.400;2022-12-20T11:24:45;4.97;;;4.68;;
934;SDS011;454;53.254;10.400;2022-12-20T11:27:23;4.28;;;3.97;;
934;SDS011;454;53.254;10.400;2022-12-20T11:30:02;7.03;;;4.88;;
934;SDS011;454;53.254;10.400;2022-12-20T11:32:45;7.53;;;3.92;;
934;SDS011;454;53.254;10.400;2022-12-20T11:35:28;3.17;;;3.03;;
934;SDS011;454;53.254;10.400;2022-12-20T11:38:05;5.07;;;4.55;;
934;SDS011;454;53.254;10.400;2022-12-20T11:40:43;6.57;;;5.68;;
934;SDS011;454;53.254;10.400;2022-12-20T11:43:20;5.47;;;4.82;;
934;SDS011;454;53.254;10.400;2022-12-20T11:45:59;7.32;;;3.92;;
934;SDS011;454;53.254;10.400;2022-12-20T11:48:45;3.30;;;3.10;;
934;SDS011;454;53.254;10.400;2022-12-20T11:51:28;7.97;;;5.60;;
934;SDS011;454;53.254;10.400;2022-12-20T11:54:06;3.47;;;2.65;;
934;SDS011;454;53.254;10.400;2022-12-20T11:56:40;3.72;;;3.42;;
934;SDS011;454;53.254;10.400;2022-12-20T11:59:10;3.83;;;3.53;;
934;SDS011;454;53.254;10.400;2022-12-20T12:01:45;3.47;;;2.60;;
934;SDS011;454;53.254;10.400;2022-12-20T12:04:18;5.10;;;4.00;;
934;SDS011;454;53.254;10.400;2022-12-20T12:06:50;4.68;;;4.10;;
934;SDS011;454;53.254;10.400;2022-12-20T12:09:26;6.93;;;4.68;;
934;SDS011;454;53.254;10.400;2022-12-20T12:12:00;3.05;;;2.83;;
934;SDS011;454;53.254;10.400;2022-12-20T12:14:35;3.85;;;3.50;;
934;SDS011;454;53.254;10.400;2022-12-20T12:17:11;5.70;;;4.50;;
934;SDS011;454;53.254;10.400;2022-12-20T12:19:44;5.20;;;4.43;;
934;SDS011;454;53.254;10.400;2022-12-20T12:22:15;7.45;;;3.50;;
934;SDS011;454;53.254;10.400;2022-12-20T12:24:50;3.85;;;3.28;;
934;SDS011;454;53.254;10.400;2022-12-20T12:27:22;6.90;;;6.25;;
934;SDS011;454;53.254;10.400;2022-12-20T12:29:51;3.92;;;3.55;;
934;SDS011;454;53.254;10.400;2022-12-20T12:32:20;8.90;;;6.28;;
934;SDS011;454;53.254;10.400;2022-12-20T12:34:58;3.83;;;3.53;;
934;SDS011;454;53.254;10.400;2022-12-20T12:37:38;5.75;;;5.38;;
934;SDS011;454;53.254;10.400;2022-12-20T12:43:43;3.85;;;3.55;;
934;SDS011;454;53.254;10.400;2022-12-20T12:46:13;5.95;;;5.55;;
934;SDS011;454;53.254;10.400;2022-12-20T12:48:42;13.32;;;10.32;;
934;SDS011;454;53.254;10.400;2022-12-20T12:51:14;4.68;;;3.15;;
934;SDS011;454;53.254;10.400;2022-12-20T12:53:48;4.57;;;3.25;;
934;SDS011;454;53.254;10.400;2022-12-20T12:56:29;6.25;;;4.75;;
934;SDS011;454;53.254;10.400;2022-12-20T12:59:12;7.80;;;6.93;;
934;SDS011;454;53.254;10.400;2022-12-20T13:01:48;8.95;;;5.35;;
934;SDS011;454;53.254;10.400;2022-12-20T13:04:27;6.85;;;6.25;;
934;SDS011;454;53.254;10.400;2022-12-20T13:06:57;8.40;;;5.88;;
934;SDS011;454;53.254;10.400;2022-12-20T13:09:38;10.32;;;6.60;;
934;SDS011;454;53.254;10.400;2022-12-20T13:18:21;8.18;;;5.40;;
934;SDS011;454;53.254;10.400;2022-12-20T13:27:26;3.85;;;2.88;;
934;SDS011;454;53.254;10.400;2022-12-20T13:29:56;5.60;;;4.90;;
934;SDS011;454;53.254;10.400;2022-12-20T13:32:57;13.70;;;6.97;;
934;SDS011;454;53.254;10.400;2022-12-20T13:35:58;3.35;;;2.95;;
934;SDS011;454;53.254;10.400;2022-12-20T13:38:37;4.57;;;4.18;;
934;SDS011;454;53.254;10.400;2022-12-20T13:41:27;5.28;;;4.75;;
934;SDS011;454;53.254;10.400;2022-12-20T13:44:17;3.45;;;2.88;;
934;SDS011;454;53.254;10.400;2022-12-20T13:47:01;6.15;;;5.40;;
934;SDS011;454;53.254;10.400;2022-12-20T13:49:35;8.02;;;5.10;;
934;SDS011;454;53.254;10.400;2022-12-20T13:52:19;3.08;;;2.88;;
934;SDS011;454;53.254;10.400;2022-12-20T13:54:51;3.80;;;3.50;;
934;SDS011;454;53.254;10.400;2022-12-20T13:57:23;3.10;;;2.83;;
934;SDS011;454;53.254;10.400;2022-12-20T13:59:54;2.42;;;2.33;;
934;SDS011;454;53.254;10.400;2022-12-20T14:02:25;3.38;;;2.45;;
934;SDS011;454;53.254;10.400;2022-12-20T14:04:57;2.90;;;2.70;;
934;SDS011;454;53.254;10.400;2022-12-20T14:07:27;2.50;;;2.40;;
934;SDS011;454;53.254;10.400;2022-12-20T14:09:56;4.28;;;2.55;;
934;SDS011;454;53.254;10.400;2022-12-20T14:12:24;2.40;;;2.30;;
934;SDS011;454;53.254;10.400;2022-12-20T14:14:52;2.58;;;2.47;;
934;SDS011;454;53.254;10.400;2022-12-20T14:17:21;2.65;;;2.20;;
934;SDS011;454;53.254;10.400;2022-12-20T14:20:11;4.90;;;3.40;;
934;SDS011;454;53.254;10.400;2022-12-20T14:22:40;1.48;;;1.48;;
934;SDS011;454;53.254;10.400;2022-12-20T14:25:11;2.65;;;2.45;;
934;SDS011;454;53.254;10.400;2022-12-20T14:27:41;2.60;;;2.40;;
934;SDS011;454;53.254;10.400;2022-12-20T14:30:23;3.22;;;1.40;;
934;SDS011;454;53.254;10.400;2022-12-20T14:32:52;3.10;;;2.40;;
934;SDS011;454;53.254;10.400;2022-12-20T14:35:21;3.38;;;3.08;;
934;SDS011;454;53.254;10.400;2022-12-20T14:37:51;3.80;;;3.08;;
934;SDS011;454;53.254;10.400;2022-12-20T14:40:20;2.85;;;2.72;;
934;SDS011;454;53.254;10.400;2022-12-20T14:42:47;4.88;;;3.10;;
934;SDS011;454;53.254;10.400;2022-12-20T14:45:18;2.28;;;2.17;;
934;SDS011;454;53.254;10.400;2022-12-20T14:47:48;2.70;;;2.50;;
934;SDS011;454;53.254;10.400;2022-12-20T14:50:23;3.75;;;3.00;;
934;SDS011;454;53.254;10.400;2022-12-20T14:52:54;3.35;;;3.05;;
934;SDS011;454;53.254;10.400;2022-12-20T14:55:22;2.30;;;2.20;;
934;SDS011;454;53.254;10.400;2022-12-20T14:57:51;5.75;;;5.15;;
934;SDS011;454;53.254;10.400;2022-12-20T15:00:20;5.43;;;5.03;;
934;SDS011;454;53.254;10.400;2022-12-20T15:02:49;3.60;;;3.50;;
934;SDS011;454;53.254;10.400;2022-12-20T15:08:15;6.07;;;4.18;;
934;SDS011;454;53.254;10.400;2022-12-20T15:10:48;6.93;;;6.32;;
934;SDS011;454;53.254;10.400;2022-12-20T15:13:20;5.20;;;3.45;;
934;SDS011;454;53.254;10.400;2022-12-20T15:15:49;4.32;;;3.92;;
934;SDS011;454;53.254;10.400;2022-12-20T15:18:16;4.43;;;4.22;;
934;SDS011;454;53.254;10.400;2022-12-20T15:20:47;4.25;;;3.83;;
934;SDS011;454;53.254;10.400;2022-12-20T15:23:20;6.57;;;6.07;;
934;SDS011;454;53.254;10.400;2022-12-20T15:25:47;4.70;;;2.67;;
934;SDS011;454;53.254;10.400;2022-12-20T15:28:15;4.80;;;4.40;;
934;SDS011;454;53.254;10.400;2022-12-20T15:30:45;9.95;;;3.25;;
934;SDS011;454;53.254;10.400;2022-12-20T15:33:14;3.70;;;3.38;;
934;SDS011;454;53.254;10.400;2022-12-20T15:35:42;4.45;;;4.05;;
934;SDS011;454;53.254;10.400;2022-12-20T15:38:14;2.72;;;2.53;;
934;SDS011;454;53.254;10.400;2022-12-20T15:40:43;4.32;;;3.35;;
934;SDS011;454;53.254;10.400;2022-12-20T15:43:11;2.70;;;2.60;;
934;SDS011;454;53.254;10.400;2022-12-20T15:45:40;3.20;;;2.80;;
934;SDS011;454;53.254;10.400;2022-12-20T15:48:15;5.47;;;2.35;;
934;SDS011;454;53.254;10.400;2022-12-20T15:50:44;2.58;;;2.38;;
934;SDS011;454;53.254;10.400;2022-12-20T15:53:16;3.25;;;3.03;;
934;SDS011;454;53.254;10.400;2022-12-20T15:55:48;4.10;;;3.75;;
934;SDS011;454;53.254;10.400;2022-12-20T15:58:16;2.63;;;2.53;;
934;SDS011;454;53.254;10.400;2022-12-20T16:00:43;3.53;;;3.22;;
934;SDS011;454;53.254;10.400;2022-12-20T16:03:13;2.78;;;2.60;;
934;SDS011;454;53.254;10.400;2022-12-20T16:05:42;3.55;;;3.30;;
934;SDS011;454;53.254;10.400;2022-12-20T16:08:08;3.20;;;3.10;;
934;SDS011;454;53.254;10.400;2022-12-20T16:10:36;3.65;;;2.85;;
934;SDS011;454;53.254;10.400;2022-12-20T16:13:04;3.63;;;3.38;;
934;SDS011;454;53.254;10.400;2022-12-20T16:15:32;3.85;;;3.10;;
934;SDS011;454;53.254;10.400;2022-12-20T16:17:59;2.90;;;2.58;;
934;SDS011;454;53.254;10.400;2022-12-20T16:20:25;2.63;;;2.50;;
934;SDS011;454;53.254;10.400;2022-12-20T16:22:53;3.35;;;2.88;;
934;SDS011;454;53.254;10.400;2022-12-20T16:25:24;2.33;;;2.20;;
934;SDS011;454;53.254;10.400;2022-12-20T16:27:54;5.55;;;2.00;;
934;SDS011;454;53.254;10.400;2022-12-20T16:30:21;1.90;;;1.90;;
934;SDS011;454;53.254;10.400;2022-12-20T16:32:48;2.53;;;2.03;;
934;SDS011;454;53.254;10.400;2022-12-20T16:35:20;2.72;;;2.50;;
934;SDS011;454;53.254;10.400;2022-12-20T16:37:51;4.72;;;3.78;;
934;SDS011;454;53.254;10.400;2022-12-20T16:40:19;2.00;;;1.90;;
934;SDS011;454;53.254;10.400;2022-12-20T16:42:46;1.65;;;1.65;;
934;SDS011;454;53.254;10.400;2022-12-20T16:45:16;2.38;;;2.08;;
934;SDS011;454;53.254;10.400;2022-12-20T16:47:44;2.75;;;2.55;;
934;SDS011;454;53.254;10.400;2022-12-20T16:50:11;3.10;;;2.80;;
934;SDS011;454;53.254;10.400;2022-12-20T16:52:38;4.70;;;3.67;;
934;SDS011;454;53.254;10.400;2022-12-20T16:55:05;3.17;;;2.88;;
934;SDS011;454;53.254;10.400;2022-12-20T16:57:35;3.30;;;2.70;;
934;SDS011;454;53.254;10.400;2022-12-20T17:00:03;2.20;;;2.10;;
934;SDS011;454;53.254;10.400;2022-12-20T17:02:32;4.30;;;2.30;;
934;SDS011;454;53.254;10.400;2022-12-20T17:04:59;2.35;;;1.75;;
934;SDS011;454;53.254;10.400;2022-12-20T17:07:26;3.22;;;3.10;;
934;SDS011;454;53.254;10.400;2022-12-20T17:09:53;3.58;;;2.70;;
934;SDS011;454;53.254;10.400;2022-12-20T17:12:20;3.60;;;2.90;;
934;SDS011;454;53.254;10.400;2022-12-20T17:14:48;3.03;;;2.80;;
934;SDS011;454;53.254;10.400;2022-12-20T17:17:14;3.90;;;3.30;;
934;SDS011;454;53.254;10.400;2022-12-20T17:19:43;2.65;;;2.50;;
934;SDS011;454;53.254;10.400;2022-12-20T17:22:10;4.95;;;4.65;;
934;SDS011;454;53.254;10.400;2022-12-20T17:24:37;2.25;;;2.25;;
934;SDS011;454;53.254;10.400;2022-12-20T17:27:04;2.78;;;2.35;;
934;SDS011;454;53.254;10.400;2022-12-20T17:29:30;2.38;;;2.28;;
934;SDS011;454;53.254;10.400;2022-12-20T17:31:57;2.72;;;2.50;;
934;SDS011;454;53.254;10.400;2022-12-20T17:34:24;4.45;;;2.92;;
934;SDS011;454;53.254;10.400;2022-12-20T17:36:54;4.18;;;3.88;;
934;SDS011;454;53.254;10.400;2022-12-20T17:39:22;3.67;;;3.00;;
934;SDS011;454;53.254;10.400;2022-12-20T17:41:50;1.83;;;1.73;;
934;SDS011;454;53.254;10.400;2022-12-20T17:44:18;2.97;;;2.78;;
934;SDS011;454;53.254;10.400;2022-12-20T17:46:47;4.45;;;4.03;;
934;SDS011;454;53.254;10.400;2022-12-20T17:49:14;8.55;;;2.58;;
934;SDS011;454;53.254;10.400;2022-12-20T17:51:41;3.00;;;2.80;;
934;SDS011;454;53.254;10.400;2022-12-20T17:54:12;2.60;;;2.40;;
934;SDS011;454;53.254;10.400;2022-12-20T17:56:43;2.40;;;2.20;;
934;SDS011;454;53.254;10.400;2022-12-20T17:59:10;2.50;;;2.40;;
934;SDS011;454;53.254;10.400;2022-12-20T18:01:37;9.02;;;4.07;;
934;SDS011;454;53.254;10.400;2022-12-20T18:04:06;4.15;;;3.70;;
934;SDS011;454;53.254;10.400;2022-12-20T18:06:34;2.88;;;2.75;;
934;SDS011;454;53.254;10.400;2022-12-20T18:09:03;3.45;;;2.72;;
934;SDS011;454;53.254;10.400;2022-12-20T18:11:33;6.45;;;2.63;;
934;SDS011;454;53.254;10.400;2022-12-20T18:14:00;2.90;;;2.80;;
934;SDS011;454;53.254;10.400;2022-12-20T18:16:28;3.55;;;3.13;;
934;SDS011;454;53.254;10.400;2022-12-20T18:18:56;3.55;;;3.25;;
934;SDS011;454;53.254;10.400;2022-12-20T18:21:23;9.80;;;4.40;;
934;SDS011;454;53.254;10.400;2022-12-20T18:23:51;3.60;;;2.15;;
934;SDS011;454;53.254;10.400;2022-12-20T18:26:19;2.30;;;2.20;;
934;SDS011;454;53.254;10.400;2022-12-20T18:28:49;2.53;;;2.08;;
934;SDS011;454;53.254;10.400;2022-12-20T18:31:19;4.43;;;3.00;;
934;SDS011;454;53.254;10.400;2022-12-20T18:33:48;4.47;;;4.05;;
934;SDS011;454;53.254;10.400;2022-12-20T18:36:16;6.72;;;5.68;;
934;SDS011;454;53.254;10.400;2022-12-20T18:38:45;11.20;;;4.00;;
934;SDS011;454;53.254;10.400;2022-12-20T18:41:13;4.95;;;3.80;;
934;SDS011;454;53.254;10.400;2022-12-20T18:43:41;2.75;;;2.65;;
934;SDS011;454;53.254;10.400;2022-12-20T18:46:10;4.40;;;3.33;;
934;SDS011;454;53.254;10.400;2022-12-20T18:48:38;4.68;;;3.45;;
934;SDS011;454;53.254;10.400;2022-12-20T18:51:06;5.55;;;3.70;;
934;SDS011;454;53.254;10.400;2022-12-20T18:53:35;3.78;;;3.58;;
934;SDS011;454;53.254;10.400;2022-12-20T18:56:03;6.10;;;3.47;;
934;SDS011;454;53.254;10.400;2022-12-20T18:58:31;4.05;;;3.30;;
934;SDS011;454;53.254;10.400;2022-12-20T19:00:59;4.10;;;3.70;;
934;SDS011;454;53.254;10.400;2022-12-20T19:03:28;3.30;;;3.00;;
934;SDS011;454;53.254;10.400;2022-12-20T19:05:55;7.75;;;5.30;;
934;SDS011;454;53.254;10.400;2022-12-20T19:08:22;4.30;;;4.00;;
934;SDS011;454;53.254;10.400;2022-12-20T19:10:50;3.97;;;3.78;;
934;SDS011;454;53.254;10.400;2022-12-20T19:13:17;4.97;;;4.65;;
934;SDS011;454;53.254;10.400;2022-12-20T19:15:44;5.20;;;4.32;;
934;SDS011;454;53.254;10.400;2022-12-20T19:18:12;3.13;;;3.00;;
934;SDS011;454;53.254;10.400;2022-12-20T19:20:40;8.57;;;4.45;;
934;SDS011;454;53.254;10.400;2022-12-20T19:23:07;7.63;;;5.97;;
934;SDS011;454;53.254;10.400;2022-12-20T19:25:34;3.83;;;3.40;;
934;SDS011;454;53.254;10.400;2022-12-20T19:28:02;6.72;;;4.25;;
934;SDS011;454;53.254;10.400;2022-12-20T19:30:29;9.55;;;8.13;;
934;SDS011;454;53.254;10.400;2022-12-20T19:32:56;6.70;;;4.78;;
934;SDS011;454;53.254;10.400;2022-12-20T19:35:22;23.13;;;13.48;;
934;SDS011;454;53.254;10.400;2022-12-20T19:37:51;12.90;;;5.88;;
934;SDS011;454;53.254;10.400;2022-12-20T19:40:17;18.85;;;11.20;;
934;SDS011;454;53.254;10.400;2022-12-20T19:42:44;15.13;;;7.32;;
934;SDS011;454;53.254;10.400;2022-12-20T19:45:11;12.98;;;7.57;;
934;SDS011;454;53.254;10.400;2022-12-20T19:47:38;5.57;;;4.70;;
934;SDS011;454;53.254;10.400;2022-12-20T19:50:05;8.10;;;7.05;;
934;SDS011;454;53.254;10.400;2022-12-20T19:52:33;7.38;;;6.40;;
934;SDS011;454;53.254;10.400;2022-12-20T19:55:02;4.30;;;4.00;;
934;SDS011;454;53.254;10.400;2022-12-20T19:57:29;9.52;;;5.60;;
934;SDS011;454;53.254;10.400;2022-12-20T19:59:55;11.50;;;5.57;;
934;SDS011;454;53.254;10.400;2022-12-20T20:02:22;8.23;;;6.75;;
934;SDS011;454;53.254;10.400;2022-12-20T20:04:49;4.18;;;3.78;;
934;SDS011;454;53.254;10.400;2022-12-20T20:07:16;5.30;;;4.20;;
934;SDS011;454;53.254;10.400;2022-12-20T20:09:43;8.93;;;5.45;;
934;SDS011;454;53.254;10.400;2022-12-20T20:12:11;4.45;;;4.00;;
934;SDS011;454;53.254;10.400;2022-12-20T20:14:38;3.38;;;3.15;;
934;SDS011;454;53.254;10.400;2022-12-20T20:17:05;3.88;;;3.50;;
934;SDS011;454;53.254;10.400;2022-12-20T20:19:32;4.20;;;3.67;;
934;SDS011;454;53.254;10.400;2022-12-20T20:21:59;6.80;;;5.28;;
934;SDS011;454;53.254;10.400;2022-12-20T20:24:26;13.30;;;8.68;;
934;SDS011;454;53.254;10.400;2022-12-20T20:26:52;9.07;;;8.05;;
934;SDS011;454;53.254;10.400;2022-12-20T20:29:20;7.38;;;6.10;;
934;SDS011;454;53.254;10.400;2022-12-20T20:31:47;12.52;;;9.20;;
934;SDS011;454;53.254;10.400;2022-12-20T20:34:14;11.70;;;9.50;;
934;SDS011;454;53.254;10.400;2022-12-20T20:36:40;16.23;;;13.52;;
934;SDS011;454;53.254;10.400;2022-12-20T20:39:07;6.93;;;5.22;;
934;SDS011;454;53.254;10.400;2022-12-20T20:41:34;15.30;;;8.82;;
934;SDS011;454;53.254;10.400;2022-12-20T20:44:01;17.80;;;12.50;;
934;SDS011;454;53.254;10.400;2022-12-20T20:46:29;16.58;;;10.20;;
934;SDS011;454;53.254;10.400;2022-12-20T20:48:55;15.65;;;8.02;;
934;SDS011;454;53.254;10.400;2022-12-20T20:51:22;5.90;;;4.25;;
934;SDS011;454;53.254;10.400;2022-12-20T20:53:49;9.63;;;8.02;;
934;SDS011;454;53.254;10.400;2022-12-20T20:56:15;5.72;;;5.32;;
934;SDS011;454;53.254;10.400;2022-12-20T20:58:42;5.93;;;5.38;;
934;SDS011;454;53.254;10.400;2022-12-20T21:01:09;12.77;;;9.27;;
934;SDS011;454;53.254;10.400;2022-12-20T21:03:37;5.22;;;4.78;;